Alamo, NV

3:42 PM PST on February 20, 2017 (GMT -0800)
Indian Springs Air Force Auxiliary | | Change Station
Active Advisory: Wind Advisory

Elev 3133 ft 36.59 °N, 115.67 °W | Updated 44 minutes ago

Overcast
Overcast
60 °F
Feels Like 60 °F
N
15
Wind Variable Wind from ESE

Today
High -- | Low -- °F
--% Chance of Precip.
Yesterday
High -- | Low -- °F
Precip. -- in
Pressure 30.02 in
Visibility 10.0 miles
Clouds Clear
Dew Point 45 °F
Humidity 58%
Rainfall 0.00 in
Snow Depth Not available.
6:23 AM 5:25 PM
Waning Crescent, 30% visible
METAR KINS 202258Z AUTO 11013KT 10SM CLR 16/07 A3008 RMK AO2 SLP164 T01560074
Pressure 30.02 in
Visibility 10.0 miles
Clouds Clear
Dew Point 45 °F
Humidity 58%
Rainfall 0.00 in
Snow Depth Not available.
6:23 AM 5:25 PM
Waning Crescent, 30% visible
METAR KINS 202258Z AUTO 11013KT 10SM CLR 16/07 A3008 RMK AO2 SLP164 T01560074

Get Your Daily Forecast Email!

Thanks for signing up!

Be on the lookout for a verification email in your inbox.

You'll start receiving the daily forecast at 8 AM.

×

10-Day Weather Forecast

Almanac

Astronomy

Feb. 20, 2017 Rise Set
Actual Time
Civil Twilight
Nautical Twilight
Astronomical Twilight
Moon
Length of Visible Light
Length of Day
Tomorrow will be .
, % of the Moon is Illuminated

Today's Extremes

State Highs State Lows

Community

WunderPhotos

Upload Photos

1,962,540 photos uploaded!

WunderBlog® & News

Nearby

Air Quality

  Air Quality AQ Index Pollutant
Not available.

Snow Depth

Station Depth Elevation

Earthquake Activity

City Distance Mag. Time & Date
Minimum magnitude displayed is 2.5.

Coastal Water Temperatures

Place Temperature

Stations

Nearby Weather Stations

Station Location Temp. Windchill Dew Point Humidity Wind Precip. Elev Updated Type
                   

Watches & Warnings

Wind Advisory
Issued: 2:21 PM PST Feb. 20, 2017 – National Weather Service

... Wind Advisory in effect from 10 am to 7 PM PST Tuesday...

The National Weather Service in Las Vegas has issued a Wind
Advisory, which is in effect from 10 am to 7 PM PST Tuesday.

* Timing... winds will increase late Tuesday morning, peak during
the afternoon then gradually decrease in the evening.

* Winds... south-southwest winds gusting 40 to 50 mph can be
expected across much of south central Nevada and Red Rock
Canyon. Gusts of 55-65 mph will occur in exposed areas of the
Spring Mountains above 7000 feet.

* Impacts... winds gusting over 40 mph can make driving
difficult... especially for high profile vehicles on east-west
oriented roads.

Precautionary/preparedness actions...

Drivers of vans... campers... trailers... and other high profile
vehicles should be alert to the danger of these winds.